Time;durP1;ratioP1;P1;durP2;ratioP2;P2;SDS_P1;SDS_P2;PMS_P1;PMS_P2;Temp;Humidity;BMP_temperature;BMP_pressure;BME280_temperature;BME280_humidity;BME280_pressure;Samples;Min_cycle;Max_cycle;Signal;HPM_P1;HPM_P2
2022/05/16 05:51:05;;;;;;;;;6.00;6.00;;;;;21.32;55.30;101286.38;5074211;27;45824;-74
2022/05/16 05:53:30;;;;;;;;;9.00;6.67;;;;;21.46;54.75;101285.97;5065129;28;45569;-74
2022/05/16 05:55:56;;;;;;;;;6.00;6.00;;;;;21.67;54.29;101287.66;5069653;27;45452;-74
2022/05/16 05:58:21;;;;;;;;;9.00;7.33;;;;;21.92;54.42;101295.38;5069208;28;46419;-74
2022/05/16 06:00:47;;;;;;;;;7.00;7.00;;;;;22.21;53.76;101300.72;5065712;28;46033;-74
2022/05/16 06:03:13;;;;;;;;;7.67;7.67;;;;;22.50;53.04;101299.78;5069259;28;45293;-74
2022/05/16 06:05:39;;;;;;;;;8.67;7.00;;;;;22.79;53.21;101310.63;5061772;28;45496;-74
2022/05/16 06:08:05;;;;;;;;;7.00;5.00;;;;;23.08;52.22;101320.47;5066267;28;45531;-75
2022/05/16 06:10:31;;;;;;;;;9.33;8.00;;;;;23.36;51.89;101315.03;5063980;28;45458;-75
2022/05/16 06:12:56;;;;;;;;;8.00;6.00;;;;;23.62;51.54;101314.28;5061454;28;45450;-74
2022/05/16 06:15:22;;;;;;;;;14.67;10.00;;;;;23.87;51.00;101318.03;5059401;28;45534;-75
2022/05/16 06:17:47;;;;;;;;;9.33;9.00;;;;;24.10;50.69;101314.03;5069969;28;45447;-75
2022/05/16 06:20:14;;;;;;;;;12.00;8.67;;;;;24.29;50.23;101319.25;5063603;28;47452;-74
2022/05/16 06:22:40;;;;;;;;;11.33;8.67;;;;;24.48;49.70;101322.72;5070095;28;45372;-75
2022/05/16 06:27:53;;;;;;;;;8.33;6.00;;;;;24.87;49.39;101345.84;5063471;28;46203;-73
2022/05/16 06:30:21;;;;;;;;;11.67;9.00;;;;;25.04;48.58;101343.19;5064709;28;45927;-76
2022/05/16 06:32:48;;;;;;;;;10.33;8.67;;;;;25.18;48.28;101339.84;5067500;28;45525;-76
2022/05/16 06:35:13;;;;;;;;;13.00;8.00;;;;;25.32;47.95;101346.53;5068730;28;45430;-76
2022/05/16 06:37:39;;;;;;;;;8.00;8.00;;;;;25.45;47.76;101359.63;5058633;28;46151;-76
2022/05/16 06:40:05;;;;;;;;;8.00;8.00;;;;;25.56;47.42;101372.06;5059416;28;45481;-76
2022/05/16 06:42:31;;;;;;;;;9.00;8.67;;;;;25.67;47.12;101383.63;5055193;28;45664;-77
2022/05/16 06:44:56;;;;;;;;;8.00;7.33;;;;;25.76;46.88;101380.75;5060514;27;45329;-77
2022/05/16 06:47:22;;;;;;;;;10.67;9.00;;;;;25.84;46.55;101381.78;5065497;27;45470;-77
2022/05/16 06:49:48;;;;;;;;;6.00;6.00;;;;;25.92;46.79;101389.97;5074666;27;45320;-77
2022/05/16 06:52:16;;;;;;;;;9.00;7.67;;;;;26.01;46.34;101396.25;5082213;27;45665;-76
2022/05/16 06:54:42;;;;;;;;;10.00;9.67;;;;;26.08;46.26;101397.28;5085942;27;45528;-76
2022/05/16 06:57:07;;;;;;;;;10.33;9.00;;;;;26.14;46.25;101401.16;5088614;27;45678;-76
2022/05/16 06:59:33;;;;;;;;;11.00;11.00;;;;;26.18;45.89;101406.13;5075746;27;45649;-76
2022/05/16 07:01:58;;;;;;;;;8.33;8.00;;;;;26.26;45.30;101418.91;5074888;27;45775;-76
2022/05/16 07:04:23;;;;;;;;;7.67;5.00;;;;;26.31;45.66;101416.50;5060640;28;47142;-76
2022/05/16 07:06:48;;;;;;;;;13.00;12.00;;;;;26.32;45.43;101417.34;5065903;28;51171;-76
2022/05/16 07:09:14;;;;;;;;;11.33;10.33;;;;;26.35;45.33;101427.06;5073033;28;56294;-75
2022/05/16 07:11:39;;;;;;;;;10.00;9.67;;;;;26.39;45.35;101439.28;5068941;28;45425;-74
2022/05/16 07:14:04;;;;;;;;;11.00;10.67;;;;;26.38;44.98;101435.72;5077775;28;45388;-74
2022/05/16 07:16:30;;;;;;;;;12.00;9.67;;;;;26.43;45.10;101440.63;5070550;28;45461;-74
2022/05/16 07:18:55;;;;;;;;;9.67;9.67;;;;;26.46;45.56;101444.88;5061415;27;45510;-74
2022/05/16 07:21:21;;;;;;;;;9.00;8.67;;;;;26.51;44.91;101445.22;5072976;28;45809;-74
2022/05/16 07:23:46;;;;;;;;;9.00;7.67;;;;;26.55;45.13;101446.59;5065627;28;45826;-74
2022/05/16 07:28:56;;;;;;;;;13.67;10.67;;;;;26.59;45.22;101439.78;5061178;28;45891;-77
2022/05/16 07:31:21;;;;;;;;;12.00;11.00;;;;;26.64;45.13;101444.72;5064992;27;46182;-75
2022/05/16 07:33:47;;;;;;;;;10.67;9.33;;;;;26.66;45.19;101450.81;5071354;27;45988;-76
2022/05/16 07:36:12;;;;;;;;;9.33;9.00;;;;;26.70;45.11;101450.28;5071325;28;45611;-73
2022/05/16 07:38:37;;;;;;;;;12.00;11.67;;;;;26.71;44.78;101451.16;5068061;28;46108;-76
2022/05/16 07:41:04;;;;;;;;;12.33;11.33;;;;;26.77;44.96;101457.78;5071528;28;45607;-77
2022/05/16 07:43:29;;;;;;;;;10.00;9.00;;;;;26.79;45.13;101464.75;5072432;28;45431;-73
2022/05/16 07:45:54;;;;;;;;;9.00;9.00;;;;;26.81;45.18;101459.97;5072805;28;45495;-75
2022/05/16 07:48:20;;;;;;;;;9.33;9.33;;;;;26.83;45.01;101477.00;5073378;28;46155;-75
2022/05/16 07:50:46;;;;;;;;;11.33;9.33;;;;;26.86;44.68;101481.25;5059663;28;45613;-78
2022/05/16 07:53:13;;;;;;;;;11.67;11.67;;;;;26.88;44.42;101471.03;5065514;28;45466;-78
2022/05/16 07:55:40;;;;;;;;;11.00;10.67;;;;;26.93;43.74;101478.69;5075764;28;45394;-77
2022/05/16 07:58:06;;;;;;;;;10.67;10.67;;;;;26.95;44.13;101473.94;5071669;28;45556;-77
2022/05/16 08:00:32;;;;;;;;;11.33;8.33;;;;;26.98;44.29;101480.91;5075014;28;45356;-77
2022/05/16 08:02:58;;;;;;;;;14.67;13.00;;;;;27.01;43.46;101492.31;5066295;28;45491;-80
2022/05/16 08:05:23;;;;;;;;;12.67;12.67;;;;;27.02;43.22;101487.72;5054998;28;45317;-78
2022/05/16 08:10:44;;;;;;;;;12.33;12.33;;;;;27.04;43.37;101493.84;5014865;28;45535;-77
2022/05/16 08:13:11;;;;;;;;;13.00;13.00;;;;;27.04;43.18;101491.97;5015479;28;45588;-77
2022/05/16 08:15:39;;;;;;;;;9.00;9.00;;;;;27.05;43.04;101495.56;5020411;28;45667;-76
2022/05/16 08:18:05;;;;;;;;;10.00;10.00;;;;;27.06;42.83;101503.53;5014441;28;46125;-77
2022/05/16 08:20:31;;;;;;;;;13.00;11.67;;;;;27.07;42.92;101498.94;5012101;28;45938;-75
2022/05/16 08:22:57;;;;;;;;;9.33;9.33;;;;;27.07;43.23;101504.41;5017819;28;45490;-74
2022/05/16 08:25:23;;;;;;;;;12.67;12.33;;;;;27.08;43.40;101512.41;5014798;28;45425;-75
2022/05/16 08:27:50;;;;;;;;;12.67;12.33;;;;;27.09;43.17;101500.47;5014454;28;46146;-75
2022/05/16 08:30:17;;;;;;;;;12.67;12.00;;;;;27.05;42.98;101496.38;5020340;28;45406;-75
2022/05/16 08:32:43;;;;;;;;;11.67;11.67;;;;;27.08;42.78;101497.91;4996318;28;45472;-75
2022/05/16 08:35:10;;;;;;;;;9.00;9.00;;;;;27.09;43.22;101510.50;5016231;28;45615;-75
2022/05/16 08:40:23;;;;;;;;;11.33;11.00;;;;;27.10;43.39;101514.94;5011584;28;45589;-75
2022/05/16 08:42:58;;;;;;;;;11.67;11.33;;;;;27.14;42.46;101520.91;5011928;28;45433;-75
2022/05/16 08:45:34;;;;;;;;;15.00;12.67;;;;;27.15;42.45;101511.69;5012157;28;45593;-77
2022/05/16 08:48:11;;;;;;;;;11.00;11.00;;;;;27.16;43.30;101508.78;5055964;28;47135;-80
2022/05/16 08:50:51;;;;;;;;;14.33;13.67;;;;;27.19;42.79;101516.63;5074099;27;45422;-77
2022/05/16 08:53:23;;;;;;;;;11.67;11.67;;;;;27.19;43.24;101507.59;5070434;28;45484;-77
2022/05/16 08:55:52;;;;;;;;;11.67;11.67;;;;;27.19;43.19;101515.78;5073251;27;45404;-75
2022/05/16 08:58:30;;;;;;;;;12.33;12.33;;;;;27.20;42.71;101534.66;5064197;28;46451;-76
2022/05/16 09:01:22;;;;;;;;;11.33;11.33;;;;;27.22;43.21;101524.44;5073494;28;45446;-77
2022/05/16 09:03:53;;;;;;;;;11.33;10.00;;;;;27.24;43.09;101537.91;5066922;28;45498;-76
2022/05/16 09:06:29;;;;;;;;;12.00;10.00;;;;;27.25;42.90;101534.13;5071554;28;45506;-77
2022/05/16 09:09:03;;;;;;;;;10.33;9.00;;;;;27.27;42.72;101543.00;5071091;28;45784;-77
2022/05/16 09:12:01;;;;;;;;;11.67;10.00;;;;;27.29;43.64;101543.66;5069982;28;45563;-76
2022/05/16 09:14:36;;;;;;;;;10.33;10.00;;;;;27.31;43.49;101551.69;5073541;28;45391;-76
2022/05/16 09:17:07;;;;;;;;;12.00;12.00;;;;;27.31;43.76;101554.41;5068533;28;45449;-77
2022/05/16 09:19:47;;;;;;;;;16.00;12.33;;;;;27.32;42.93;101567.84;5071928;28;45972;-74
2022/05/16 09:22:39;;;;;;;;;11.33;11.33;;;;;27.32;43.78;101559.69;5062734;28;45412;-77
2022/05/16 09:25:13;;;;;;;;;14.00;11.00;;;;;27.33;43.81;101568.69;5057109;28;45519;-76
2022/05/16 09:30:27;;;;;;;;;12.00;12.00;;;;;27.36;43.57;101562.91;5065407;28;45586;-75
2022/05/16 09:32:59;;;;;;;;;12.67;11.00;;;;;27.36;43.85;101557.44;5061498;28;45491;-76
2022/05/16 09:35:36;;;;;;;;;9.33;9.33;;;;;27.41;43.83;101554.19;5054750;28;45742;-75
2022/05/16 09:38:03;;;;;;;;;12.33;11.33;;;;;27.43;43.28;101563.06;5071512;28;45404;-75
2022/05/16 09:40:37;;;;;;;;;10.67;10.67;;;;;27.45;43.60;101561.00;5070877;28;45645;-75
2022/05/16 09:43:20;;;;;;;;;9.33;9.33;;;;;27.47;43.53;101559.78;5068944;28;46323;-74
2022/05/16 09:45:51;;;;;;;;;9.67;9.67;;;;;27.50;43.55;101564.03;5071163;28;45399;-75
2022/05/16 09:48:19;;;;;;;;;11.00;9.00;;;;;27.53;44.09;101560.09;5073481;28;45477;-74
2022/05/16 09:50:57;;;;;;;;;10.67;10.00;;;;;27.58;43.85;101565.88;5069575;28;45979;-74
2022/05/16 09:53:46;;;;;;;;;11.33;9.33;;;;;27.62;43.46;101578.16;5067133;27;45476;-76
2022/05/16 09:56:26;;;;;;;;;16.67;13.33;;;;;27.70;41.86;101575.41;5073709;27;45433;-76
2022/05/16 09:58:56;;;;;;;;;10.67;10.67;;;;;27.77;41.76;101586.47;5071335;28;45732;-78
2022/05/16 10:01:43;;;;;;;;;14.33;12.67;;;;;27.79;41.75;101578.94;5068863;28;46982;-79
2022/05/16 10:04:18;;;;;;;;;12.33;11.33;;;;;27.76;42.26;101579.31;5069951;28;45518;-78
2022/05/16 10:07:04;;;;;;;;;10.67;9.67;;;;;27.79;41.71;101584.41;5068125;28;45560;-80
2022/05/16 10:09:36;;;;;;;;;11.00;11.00;;;;;27.80;42.13;101585.25;5066418;27;45467;-80
2022/05/16 10:12:04;;;;;;;;;9.00;9.00;;;;;27.79;41.41;101580.84;5070069;28;45484;-80
2022/05/16 10:14:30;;;;;;;;;11.00;11.00;;;;;27.79;41.33;101587.13;5071277;28;45509;-78
2022/05/16 10:16:56;;;;;;;;;14.67;11.67;;;;;27.79;41.45;101594.47;5054151;28;45457;-78
2022/05/16 10:19:26;;;;;;;;;11.50;11.00;;;;;27.80;41.94;101590.72;5069315;28;45454;-79
2022/05/16 10:21:54;;;;;;;;;14.33;11.33;;;;;27.79;41.81;101605.38;5070073;28;46376;-77
2022/05/16 10:24:23;;;;;;;;;10.67;10.67;;;;;27.77;41.70;101597.38;5071138;28;45447;-77
2022/05/16 10:26:51;;;;;;;;;12.00;10.33;;;;;27.77;41.60;101591.06;5072516;28;45471;-76
2022/05/16 10:29:31;;;;;;;;;10.33;10.33;;;;;27.77;41.15;101586.47;5069583;28;45376;-77
2022/05/16 10:34:59;;;;;;;;;10.67;10.67;;;;;27.82;41.71;101591.38;5071203;28;45426;-76
2022/05/16 10:37:27;;;;;;;;;12.00;10.00;;;;;27.83;41.06;101595.84;5071990;28;45515;-77
2022/05/16 10:40:06;;;;;;;;;12.67;12.33;;;;;27.84;41.26;101605.72;5074156;27;45622;-74
2022/05/16 10:43:14;;;;;;;;;11.67;11.33;;;;;27.85;41.52;101601.94;5072507;28;45474;-74
2022/05/16 10:45:45;;;;;;;;;17.33;14.33;;;;;27.84;41.11;101594.81;5073254;28;45517;-74
2022/05/16 10:48:18;;;;;;;;;11.00;10.67;;;;;27.84;41.50;101594.81;5074941;28;45385;-74
2022/05/16 10:50:57;;;;;;;;;8.67;8.67;;;;;27.84;41.39;101595.63;5066573;28;45471;-75
2022/05/16 10:54:08;;;;;;;;;10.33;10.33;;;;;27.83;41.58;101593.94;5073124;28;46536;-74
2022/05/16 10:57:04;;;;;;;;;11.33;11.33;;;;;27.80;41.10;101591.59;4987141;28;45694;-74
2022/05/16 10:59:47;;;;;;;;;12.00;11.00;;;;;27.80;40.96;101601.63;4992970;28;45670;-74
2022/05/16 11:02:50;;;;;;;;;10.33;10.33;;;;;27.79;41.38;101594.47;4987591;28;45516;-74
2022/05/16 11:05:39;;;;;;;;;11.33;10.00;;;;;27.75;41.54;101594.81;4987776;28;46302;-75
2022/05/16 11:08:23;;;;;;;;;12.33;10.00;;;;;27.73;41.05;101594.16;4983260;28;45444;-74
2022/05/16 11:10:51;;;;;;;;;12.67;11.33;;;;;27.72;41.56;101595.16;4993301;28;45517;-75
2022/05/16 11:13:36;;;;;;;;;11.33;10.67;;;;;27.72;41.43;101594.34;4990316;28;45362;-75
2022/05/16 11:16:16;;;;;;;;;10.00;8.67;;;;;27.71;41.19;101593.47;4992005;28;47064;-74
2022/05/16 11:18:54;;;;;;;;;9.33;9.33;;;;;27.71;41.43;101595.38;4990756;28;47998;-75
2022/05/16 11:21:32;;;;;;;;;11.00;11.00;;;;;27.70;41.42;101589.06;4988942;28;45514;-75
2022/05/16 11:24:26;;;;;;;;;9.00;9.00;;;;;27.67;41.49;101585.84;4992030;28;45684;-76
2022/05/16 11:26:57;;;;;;;;;9.67;9.33;;;;;27.67;40.88;101588.56;4985169;28;47459;-74
2022/05/16 11:29:41;;;;;;;;;11.33;9.33;;;;;27.64;41.36;101588.91;4990126;28;45512;-74
2022/05/16 11:32:32;;;;;;;;;10.67;10.67;;;;;27.63;41.06;101593.53;5000845;28;45634;-73
2022/05/16 11:35:09;;;;;;;;;11.67;10.00;;;;;27.63;41.20;101588.06;5072896;28;46248;-74
2022/05/16 11:38:05;;;;;;;;;13.67;12.33;;;;;27.66;41.77;101578.69;5064189;28;45572;-76
2022/05/16 11:40:49;;;;;;;;;10.67;10.33;;;;;27.69;41.59;101581.03;5069339;28;45481;-75
2022/05/16 11:43:30;;;;;;;;;15.00;11.00;;;;;27.70;40.98;101582.75;5067404;28;45623;-75
2022/05/16 11:46:17;;;;;;;;;12.67;11.00;;;;;27.67;41.14;101586.66;5053127;28;45482;-74
2022/05/16 11:49:30;;;;;;;;;11.00;11.00;;;;;27.65;41.77;101577.81;5068352;27;46054;-74
2022/05/16 11:52:22;;;;;;;;;12.67;10.67;;;;;27.66;42.03;101575.97;5011560;28;45481;-74
2022/05/16 12:00:31;;;;;;;;;10.67;10.67;;;;;27.65;42.16;101583.28;4988775;28;45578;-73
2022/05/16 12:00:50;;;;;;;;;10.67;10.67;;;;;27.75;41.37;101572.19;5010894;28;45716;-74
2022/05/16 12:03:19;;;;;;;;;11.00;11.00;;;;;27.80;40.88;101566.16;5011393;28;45416;-74
2022/05/16 12:06:11;;;;;;;;;9.33;9.33;;;;;27.84;41.51;101568.34;5004206;28;45559;-74
2022/05/16 12:08:45;;;;;;;;;10.33;10.33;;;;;27.87;40.83;101559.81;5009366;28;45521;-77
2022/05/16 12:11:16;;;;;;;;;10.00;9.33;;;;;27.89;40.92;101556.91;5011837;28;46110;-75
2022/05/16 12:14:02;;;;;;;;;12.33;12.33;;;;;27.91;40.67;101557.59;5012009;28;45499;-75
2022/05/16 12:16:51;;;;;;;;;9.67;8.67;;;;;27.93;40.65;101562.88;5009906;28;46424;-75
2022/05/16 12:19:32;;;;;;;;;8.33;8.00;;;;;27.95;41.50;101544.44;5008775;28;45546;-74
2022/05/16 12:22:10;;;;;;;;;12.33;12.00;;;;;27.94;40.99;101543.59;5022453;27;46192;-82
2022/05/16 12:24:39;;;;;;;;;13.00;10.00;;;;;27.97;41.39;101554.16;5056518;28;45525;-75
2022/05/16 12:27:07;;;;;;;;;9.00;8.67;;;;;28.01;41.29;101549.19;5068245;28;45402;-75
2022/05/16 12:29:40;;;;;;;;;9.00;8.00;;;;;28.03;40.45;101555.28;5071267;28;45483;-75
2022/05/16 12:32:06;;;;;;;;;14.00;12.00;;;;;28.02;41.42;101550.88;5075110;28;46202;-75
2022/05/16 12:34:32;;;;;;;;;10.00;10.00;;;;;27.99;41.44;101545.78;5072414;28;45533;-75
2022/05/16 12:37:00;;;;;;;;;11.67;10.00;;;;;27.99;40.57;101537.59;5069993;28;45458;-75
2022/05/16 12:39:31;;;;;;;;;9.00;9.00;;;;;28.02;40.59;101545.41;5072494;28;45525;-75
2022/05/16 12:42:27;;;;;;;;;10.33;10.33;;;;;28.04;40.09;101546.09;5067337;28;47045;-78
2022/05/16 12:45:17;;;;;;;;;8.00;6.33;;;;;28.02;41.16;101546.28;5070505;28;45435;-76
2022/05/16 12:48:27;;;;;;;;;9.00;8.00;;;;;27.99;40.45;101538.44;5066001;28;45427;-75
2022/05/16 12:51:16;;;;;;;;;9.00;9.00;;;;;27.95;41.30;101534.38;5029917;28;45624;-75
2022/05/16 12:54:08;;;;;;;;;7.00;7.00;;;;;27.93;41.36;101543.78;5030241;28;45669;-75
2022/05/16 12:56:46;;;;;;;;;9.67;9.67;;;;;27.88;40.76;101549.78;5017810;28;46157;-80
2022/05/16 12:59:41;;;;;;;;;12.67;12.00;;;;;27.81;40.69;101552.38;5031430;28;45491;-80
2022/05/16 13:02:13;;;;;;;;;10.33;10.00;;;;;27.83;40.99;101557.66;5030569;28;45503;-78
2022/05/16 13:05:01;;;;;;;;;7.67;7.67;;;;;27.84;41.05;101553.88;5026617;28;47172;-79
2022/05/16 13:07:36;;;;;;;;;10.00;8.00;;;;;27.89;41.29;101551.47;5023754;28;45423;-79
2022/05/16 13:10:09;;;;;;;;;8.00;8.00;;;;;27.88;40.66;101539.69;5033047;28;45664;-80
2022/05/16 13:12:57;;;;;;;;;9.00;9.00;;;;;27.91;41.01;101540.38;5027928;28;45502;-79
2022/05/16 13:15:51;;;;;;;;;8.00;8.00;;;;;27.93;41.11;101552.81;5024970;28;45633;-78
2022/05/16 13:18:25;;;;;;;;;9.00;9.00;;;;;27.92;40.74;101542.94;5028782;28;45498;-75
2022/05/16 13:20:54;;;;;;;;;15.00;11.00;;;;;27.90;41.22;101541.41;5018025;28;45561;-74
2022/05/16 13:23:20;;;;;;;;;10.33;8.67;;;;;27.88;41.27;101542.41;5029236;28;46526;-76
2022/05/16 13:29:34;;;;;;;;;10.67;10.33;;;;;27.87;41.06;101543.47;5066023;28;45688;-74
2022/05/16 13:31:33;;;;;;;;;9.00;6.33;;;;;27.87;41.35;101543.47;5060026;27;46450;-72
2022/05/16 13:34:01;;;;;;;;;9.33;9.33;;;;;27.90;41.81;101533.22;5058674;28;45569;-75
2022/05/16 13:36:26;;;;;;;;;8.00;8.00;;;;;27.92;42.28;101534.75;5064582;28;46436;-75
2022/05/16 13:39:16;;;;;;;;;11.67;9.00;;;;;27.93;41.27;101528.25;5066185;28;45707;-76
2022/05/16 13:41:41;;;;;;;;;8.00;8.00;;;;;27.93;41.38;101531.00;5072840;28;45502;-74
2022/05/16 13:44:12;;;;;;;;;8.00;7.00;;;;;27.94;41.31;101524.50;5057241;28;45375;-74
2022/05/16 13:46:37;;;;;;;;;9.33;9.33;;;;;27.95;41.64;101523.47;5073259;28;47098;-76
2022/05/16 13:49:07;;;;;;;;;8.00;8.00;;;;;27.98;41.02;101524.97;5065431;28;45551;-75
2022/05/16 13:51:44;;;;;;;;;10.00;9.00;;;;;27.97;41.85;101531.47;5059788;28;45420;-76
2022/05/16 13:54:22;;;;;;;;;10.00;8.67;;;;;27.98;41.26;101528.56;5061350;28;45449;-75
2022/05/16 13:56:56;;;;;;;;;8.33;8.33;;;;;27.99;41.44;101523.94;5062253;28;45496;-76
2022/05/16 13:59:32;;;;;;;;;6.67;6.67;;;;;27.99;41.66;101519.34;5056432;28;45384;-75
2022/05/16 14:02:09;;;;;;;;;7.67;7.00;;;;;28.02;41.53;101529.91;5062527;28;45833;-75
2022/05/16 14:04:43;;;;;;;;;9.33;9.00;;;;;28.04;41.39;101523.41;5072279;28;45511;-75
2022/05/16 14:07:38;;;;;;;;;7.67;7.67;;;;;28.07;41.52;101531.25;5064882;28;46441;-76
2022/05/16 14:10:10;;;;;;;;;7.00;7.00;;;;;28.08;42.04;101528.31;5054714;28;45526;-76
2022/05/16 14:12:44;;;;;;;;;8.00;7.00;;;;;28.12;41.56;101529.66;5072070;27;45444;-77
2022/05/16 14:15:31;;;;;;;;;7.67;5.67;;;;;28.14;41.72;101530.34;5054855;28;45597;-76
2022/05/16 14:18:03;;;;;;;;;8.00;7.33;;;;;28.13;41.42;101531.34;5060737;28;45382;-73
2022/05/16 14:20:40;;;;;;;;;8.33;6.33;;;;;28.12;41.10;101526.09;5061676;28;45448;-75
2022/05/16 14:23:14;;;;;;;;;8.00;8.00;;;;;28.13;41.78;101528.63;5064441;28;45502;-75
2022/05/16 14:25:42;;;;;;;;;8.00;8.00;;;;;28.14;41.22;101524.88;5062043;28;45511;-74
2022/05/16 14:28:22;;;;;;;;;7.67;7.67;;;;;28.16;41.48;101532.91;5066890;28;46346;-74
2022/05/16 14:30:53;;;;;;;;;8.33;6.33;;;;;28.17;42.03;101526.41;5076147;28;45379;-72
2022/05/16 14:33:19;;;;;;;;;7.67;6.33;;;;;28.19;41.80;101523.50;5066292;28;45442;-73
2022/05/16 14:36:00;;;;;;;;;7.00;6.67;;;;;28.21;42.04;101527.75;5065631;28;45542;-75
2022/05/16 14:38:28;;;;;;;;;5.67;5.67;;;;;28.24;41.53;101523.81;5062974;28;45612;-77
2022/05/16 14:41:06;;;;;;;;;7.67;7.67;;;;;28.26;41.98;101525.34;5063819;28;45627;-78
2022/05/16 14:43:38;;;;;;;;;8.67;8.67;;;;;28.28;41.85;101528.72;5062321;28;45865;-75
2022/05/16 14:46:45;;;;;;;;;5.67;5.00;;;;;28.31;41.46;101527.50;5062577;28;45485;-76
2022/05/16 14:49:13;;;;;;;;;5.67;5.67;;;;;28.34;41.59;101531.75;5061267;27;47915;-74
2022/05/16 14:51:40;;;;;;;;;6.00;5.00;;;;;28.35;41.56;101517.94;5062897;28;45773;-76
2022/05/16 14:54:22;;;;;;;;;5.00;5.00;;;;;28.36;41.65;101518.78;5060148;28;48130;-79
2022/05/16 14:56:47;;;;;;;;;6.00;6.00;;;;;28.33;41.44;101525.47;5063410;27;45475;-76
2022/05/16 14:59:13;;;;;;;;;6.00;5.00;;;;;28.34;41.74;101523.56;5072671;28;45540;-76
2022/05/16 15:04:22;;;;;;;;;7.00;5.00;;;;;28.37;41.98;101521.31;5067857;28;45578;-75
2022/05/16 15:06:48;;;;;;;;;6.00;4.00;;;;;28.39;42.00;101518.41;5065876;28;45478;-75
2022/05/16 15:09:19;;;;;;;;;5.00;5.00;;;;;28.41;41.98;101519.94;5053230;28;46181;-75
2022/05/16 15:11:52;;;;;;;;;6.67;4.00;;;;;28.40;42.42;101515.50;5066300;28;45599;-75
2022/05/16 15:14:19;;;;;;;;;5.00;5.00;;;;;28.44;42.34;101526.91;5060295;28;45419;-76
2022/05/16 15:16:45;;;;;;;;;7.67;7.67;;;;;28.46;42.58;101524.00;5075713;28;47901;-77
2022/05/16 15:19:11;;;;;;;;;5.33;5.33;;;;;28.48;42.66;101522.78;5074072;28;45887;-77
2022/05/16 15:21:39;;;;;;;;;4.33;4.33;;;;;28.50;42.33;101528.06;5071368;28;45412;-75
2022/05/16 15:24:09;;;;;;;;;4.00;4.00;;;;;28.52;42.67;101525.97;5055047;28;45459;-77
2022/05/16 15:26:34;;;;;;;;;3.00;3.00;;;;;28.52;42.66;101526.84;5066371;28;45660;-76
2022/05/16 15:28:59;;;;;;;;;6.67;6.67;;;;;28.52;41.97;101507.72;5072498;28;47060;-77
2022/05/16 15:31:25;;;;;;;;;6.67;6.00;;;;;28.54;41.17;101523.94;5070262;27;45659;-81
2022/05/16 15:33:50;;;;;;;;;6.33;5.67;;;;;28.49;41.78;101519.00;5069999;27;45795;-77
2022/05/16 15:36:17;;;;;;;;;5.67;5.00;;;;;28.46;41.12;101513.06;5066111;27;45406;-75
2022/05/16 15:38:44;;;;;;;;;7.67;6.67;;;;;28.44;41.69;101515.16;5073079;27;46279;-76
2022/05/16 15:41:10;;;;;;;;;8.67;8.00;;;;;28.42;41.86;101509.88;5067088;27;45451;-76
2022/05/16 15:43:35;;;;;;;;;7.67;6.67;;;;;28.43;41.70;101511.56;5060866;27;45511;-75
2022/05/16 15:46:01;;;;;;;;;9.00;6.00;;;;;28.42;41.52;101512.59;5044182;28;45599;-75
